Terminal Aerodrome Forecast
Issued by NWS Paducah, KY

Home | Current Version | Previous Version | Text Only | Print | Product List | Glossary On
Versions: 1 2 3 4 5 6 7 8 9 10 11 12 13 14 15 16
000
FTUS43 KPAH 260500
TAFPAH
TAF
KPAH 260520Z 2606/2706 00000KT P6SM SCT200
     FM261500 15005KT P6SM SCT045 BKN080
     FM261900 09004KT 4SM -RA BR OVC020
     FM270000 28006KT P6SM BKN020=

USA.gov is the U.S. government's official web portal to all federal, state and local government web resources and services.